createdAt,value
2022-11-25T00:00:11.110Z,2.88
2022-11-25T00:15:54.725Z,2.98
2022-11-25T00:31:27.660Z,3.32
2022-11-25T00:47:07.428Z,3.12
2022-11-25T01:02:45.202Z,2.93
2022-11-25T01:18:08.220Z,2.97
2022-11-25T01:33:33.605Z,3.32
2022-11-25T01:49:06.979Z,3.27
2022-11-25T02:04:46.059Z,3.17
2022-11-25T02:20:19.478Z,3.28
2022-11-25T02:51:36.238Z,2.86
2022-11-25T03:06:58.980Z,3.10
2022-11-25T03:22:22.020Z,3.07
2022-11-25T03:37:58.515Z,2.80
2022-11-25T03:53:21.318Z,2.76
2022-11-25T04:08:44.016Z,3.07
2022-11-25T04:24:07.625Z,2.88
2022-11-25T04:39:30.318Z,2.63
2022-11-25T04:54:53.262Z,2.72
2022-11-25T05:10:29.763Z,2.51
2022-11-25T05:25:52.552Z,2.48
2022-11-25T05:41:16.040Z,2.60
2022-11-25T05:56:52.875Z,2.50
2022-11-25T06:12:15.623Z,2.43
2022-11-25T06:43:35.857Z,2.32
2022-11-25T06:58:58.868Z,2.32
2022-11-25T07:14:22.116Z,2.65
2022-11-25T07:30:03.118Z,2.42
2022-11-25T07:45:42.096Z,2.40
2022-11-25T08:01:07.808Z,2.59
2022-11-25T08:16:32.054Z,2.40
2022-11-25T08:47:33.987Z,2.47
2022-11-25T09:02:57.611Z,2.54
2022-11-25T09:18:26.424Z,2.70
2022-11-25T09:33:50.710Z,2.72
2022-11-25T09:49:35.855Z,3.14
2022-11-25T10:05:25.609Z,3.07
2022-11-25T10:20:52.768Z,3.00
2022-11-25T10:36:25.267Z,3.07
2022-11-25T10:51:51.369Z,3.03
2022-11-25T11:07:14.931Z,3.24
2022-11-25T11:22:55.493Z,3.39
2022-11-25T11:38:27.057Z,3.48
2022-11-25T11:54:14.747Z,3.73
2022-11-25T12:09:49.318Z,4.09
2022-11-25T12:25:22.721Z,4.14
2022-11-25T12:41:25.890Z,4.15
2022-11-25T12:57:11.479Z,4.43
2022-11-25T13:28:46.179Z,4.83
2022-11-25T13:45:00.698Z,4.51
2022-11-25T14:00:23.485Z,4.49
2022-11-25T14:16:28.543Z,4.73
2022-11-25T14:32:19.261Z,4.48
2022-11-25T14:47:42.648Z,4.38
2022-11-25T15:03:06.959Z,4.53
2022-11-25T15:18:30.773Z,4.20
2022-11-25T15:33:59.528Z,3.92
2022-11-25T15:49:37.096Z,3.89
2022-11-25T16:05:26.668Z,4.21
2022-11-25T16:34:20.021Z,3.66
2022-11-25T16:49:43.801Z,3.66
2022-11-25T17:05:25.112Z,4.05
2022-11-25T17:20:48.968Z,3.84
2022-11-25T17:36:27.568Z,3.72
2022-11-25T18:07:44.710Z,4.32
2022-11-25T18:46:38.373Z,3.80
2022-11-25T19:01:49.900Z,3.70
2022-11-25T19:16:56.657Z,3.69
2022-11-25T19:32:03.802Z,3.55
2022-11-25T19:47:21.160Z,3.71
2022-11-25T20:02:27.753Z,4.16
2022-11-25T20:17:35.839Z,4.21
2022-11-25T20:32:42.176Z,4.18
2022-11-25T20:47:51.705Z,4.35
2022-11-25T21:03:11.087Z,4.11
2022-11-25T21:18:17.319Z,3.82
2022-11-25T21:33:23.689Z,3.88
2022-11-25T21:48:29.879Z,3.96
2022-11-25T22:03:35.491Z,3.92
2022-11-25T22:18:40.808Z,4.02
2022-11-25T22:33:59.568Z,4.38
2022-11-25T22:49:51.468Z,4.27
2022-11-25T23:04:56.981Z,4.18
2022-11-25T23:20:01.840Z,4.36
2022-11-25T23:35:31.338Z,4.14
2022-11-25T23:50:35.979Z,4.05
